sensor_id;sensor_type;location;lat;lon;timestamp;P1;durP1;ratioP1;P2;durP2;ratioP2
42192;SDS011;52467;40.114;18.306;2023-04-06T00:01:34;6.93;;;4.00;;
42192;SDS011;52467;40.114;18.306;2023-04-06T00:04:02;7.65;;;4.10;;
42192;SDS011;52467;40.114;18.306;2023-04-06T00:06:30;9.07;;;3.60;;
42192;SDS011;52467;40.114;18.306;2023-04-06T00:08:59;6.07;;;3.05;;
42192;SDS011;52467;40.114;18.306;2023-04-06T00:11:27;8.20;;;3.30;;
42192;SDS011;52467;40.114;18.306;2023-04-06T00:13:54;4.67;;;2.90;;
42192;SDS011;52467;40.114;18.306;2023-04-06T00:16:22;6.43;;;3.08;;
42192;SDS011;52467;40.114;18.306;2023-04-06T00:18:50;7.07;;;3.10;;
42192;SDS011;52467;40.114;18.306;2023-04-06T00:21:20;5.45;;;3.08;;
42192;SDS011;52467;40.114;18.306;2023-04-06T00:23:47;5.67;;;3.47;;
42192;SDS011;52467;40.114;18.306;2023-04-06T00:26:15;5.50;;;3.67;;
42192;SDS011;52467;40.114;18.306;2023-04-06T00:28:45;9.00;;;3.78;;
42192;SDS011;52467;40.114;18.306;2023-04-06T00:31:15;7.82;;;3.78;;
42192;SDS011;52467;40.114;18.306;2023-04-06T00:33:43;7.95;;;3.40;;
42192;SDS011;52467;40.114;18.306;2023-04-06T00:36:10;6.05;;;3.45;;
42192;SDS011;52467;40.114;18.306;2023-04-06T00:38:38;7.38;;;3.00;;
42192;SDS011;52467;40.114;18.306;2023-04-06T00:41:05;4.72;;;2.85;;
42192;SDS011;52467;40.114;18.306;2023-04-06T00:43:33;4.82;;;2.88;;
42192;SDS011;52467;40.114;18.306;2023-04-06T00:46:00;4.30;;;2.78;;
42192;SDS011;52467;40.114;18.306;2023-04-06T00:48:28;4.70;;;2.87;;
42192;SDS011;52467;40.114;18.306;2023-04-06T00:50:58;4.82;;;2.50;;
42192;SDS011;52467;40.114;18.306;2023-04-06T00:53:27;3.63;;;2.33;;
42192;SDS011;52467;40.114;18.306;2023-04-06T00:55:55;5.97;;;2.55;;
42192;SDS011;52467;40.114;18.306;2023-04-06T00:58:23;5.72;;;2.67;;
42192;SDS011;52467;40.114;18.306;2023-04-06T01:01:00;6.90;;;2.58;;
42192;SDS011;52467;40.114;18.306;2023-04-06T01:03:28;6.57;;;2.80;;
42192;SDS011;52467;40.114;18.306;2023-04-06T01:05:56;8.45;;;2.67;;
42192;SDS011;52467;40.114;18.306;2023-04-06T01:08:31;6.85;;;3.22;;
42192;SDS011;52467;40.114;18.306;2023-04-06T01:11:11;5.93;;;2.80;;
42192;SDS011;52467;40.114;18.306;2023-04-06T01:13:39;2.77;;;2.37;;
42192;SDS011;52467;40.114;18.306;2023-04-06T01:16:14;3.72;;;2.15;;
42192;SDS011;52467;40.114;18.306;2023-04-06T01:19:09;3.03;;;1.83;;
42192;SDS011;52467;40.114;18.306;2023-04-06T01:21:41;4.32;;;2.10;;
42192;SDS011;52467;40.114;18.306;2023-04-06T01:24:20;3.75;;;2.30;;
42192;SDS011;52467;40.114;18.306;2023-04-06T01:27:03;3.33;;;2.00;;
42192;SDS011;52467;40.114;18.306;2023-04-06T01:29:45;4.15;;;2.50;;
42192;SDS011;52467;40.114;18.306;2023-04-06T01:32:19;2.95;;;2.50;;
42192;SDS011;52467;40.114;18.306;2023-04-06T01:34:50;6.03;;;2.60;;
42192;SDS011;52467;40.114;18.306;2023-04-06T01:37:17;4.50;;;2.20;;
42192;SDS011;52467;40.114;18.306;2023-04-06T01:39:45;4.85;;;3.00;;
42192;SDS011;52467;40.114;18.306;2023-04-06T01:42:23;4.63;;;2.75;;
42192;SDS011;52467;40.114;18.306;2023-04-06T01:44:51;4.53;;;2.87;;
42192;SDS011;52467;40.114;18.306;2023-04-06T01:47:19;4.17;;;2.30;;
42192;SDS011;52467;40.114;18.306;2023-04-06T01:49:47;2.95;;;2.30;;
42192;SDS011;52467;40.114;18.306;2023-04-06T01:52:16;3.97;;;2.58;;
42192;SDS011;52467;40.114;18.306;2023-04-06T01:54:50;3.85;;;2.45;;
42192;SDS011;52467;40.114;18.306;2023-04-06T01:57:52;4.30;;;2.60;;
42192;SDS011;52467;40.114;18.306;2023-04-06T02:00:31;3.85;;;2.30;;
42192;SDS011;52467;40.114;18.306;2023-04-06T02:02:59;2.65;;;2.17;;
42192;SDS011;52467;40.114;18.306;2023-04-06T02:05:29;3.35;;;2.28;;
42192;SDS011;52467;40.114;18.306;2023-04-06T02:07:58;4.90;;;2.30;;
42192;SDS011;52467;40.114;18.306;2023-04-06T02:10:32;5.22;;;2.63;;
42192;SDS011;52467;40.114;18.306;2023-04-06T02:13:07;4.10;;;2.50;;
42192;SDS011;52467;40.114;18.306;2023-04-06T02:15:35;3.75;;;2.53;;
42192;SDS011;52467;40.114;18.306;2023-04-06T02:18:02;4.00;;;2.60;;
42192;SDS011;52467;40.114;18.306;2023-04-06T02:20:30;3.33;;;2.60;;
42192;SDS011;52467;40.114;18.306;2023-04-06T02:23:02;4.15;;;2.72;;
42192;SDS011;52467;40.114;18.306;2023-04-06T02:25:30;5.00;;;2.70;;
42192;SDS011;52467;40.114;18.306;2023-04-06T02:27:58;3.97;;;2.63;;
42192;SDS011;52467;40.114;18.306;2023-04-06T02:30:28;3.30;;;2.60;;
42192;SDS011;52467;40.114;18.306;2023-04-06T02:32:56;3.95;;;2.58;;
42192;SDS011;52467;40.114;18.306;2023-04-06T02:35:24;3.63;;;2.85;;
42192;SDS011;52467;40.114;18.306;2023-04-06T02:37:54;5.90;;;3.28;;
42192;SDS011;52467;40.114;18.306;2023-04-06T02:40:21;4.30;;;2.83;;
42192;SDS011;52467;40.114;18.306;2023-04-06T02:42:49;3.75;;;2.80;;
42192;SDS011;52467;40.114;18.306;2023-04-06T02:45:23;5.25;;;2.40;;
42192;SDS011;52467;40.114;18.306;2023-04-06T02:47:50;4.82;;;2.67;;
42192;SDS011;52467;40.114;18.306;2023-04-06T02:50:17;3.42;;;2.60;;
42192;SDS011;52467;40.114;18.306;2023-04-06T02:52:53;5.03;;;2.93;;
42192;SDS011;52467;40.114;18.306;2023-04-06T02:55:23;4.40;;;3.03;;
42192;SDS011;52467;40.114;18.306;2023-04-06T02:57:50;5.35;;;2.70;;
42192;SDS011;52467;40.114;18.306;2023-04-06T03:00:24;4.33;;;2.90;;
42192;SDS011;52467;40.114;18.306;2023-04-06T03:02:52;5.00;;;2.58;;
42192;SDS011;52467;40.114;18.306;2023-04-06T03:05:20;5.97;;;3.33;;
42192;SDS011;52467;40.114;18.306;2023-04-06T03:07:48;6.75;;;2.83;;
42192;SDS011;52467;40.114;18.306;2023-04-06T03:10:31;5.45;;;3.00;;
42192;SDS011;52467;40.114;18.306;2023-04-06T03:12:59;4.47;;;3.13;;
42192;SDS011;52467;40.114;18.306;2023-04-06T03:15:41;4.05;;;2.78;;
42192;SDS011;52467;40.114;18.306;2023-04-06T03:18:15;6.40;;;3.15;;
42192;SDS011;52467;40.114;18.306;2023-04-06T03:20:47;3.88;;;3.00;;
42192;SDS011;52467;40.114;18.306;2023-04-06T03:23:16;4.10;;;3.05;;
42192;SDS011;52467;40.114;18.306;2023-04-06T03:25:45;5.03;;;3.40;;
42192;SDS011;52467;40.114;18.306;2023-04-06T03:28:16;4.47;;;2.90;;
42192;SDS011;52467;40.114;18.306;2023-04-06T03:30:56;4.45;;;2.97;;
42192;SDS011;52467;40.114;18.306;2023-04-06T03:33:39;3.97;;;2.83;;
42192;SDS011;52467;40.114;18.306;2023-04-06T03:36:09;5.03;;;3.55;;
42192;SDS011;52467;40.114;18.306;2023-04-06T03:38:40;5.30;;;3.40;;
42192;SDS011;52467;40.114;18.306;2023-04-06T03:41:11;4.65;;;3.10;;
42192;SDS011;52467;40.114;18.306;2023-04-06T03:43:42;4.68;;;3.10;;
42192;SDS011;52467;40.114;18.306;2023-04-06T03:46:10;6.93;;;3.53;;
42192;SDS011;52467;40.114;18.306;2023-04-06T03:48:38;5.43;;;3.35;;
42192;SDS011;52467;40.114;18.306;2023-04-06T03:51:06;4.90;;;3.43;;
42192;SDS011;52467;40.114;18.306;2023-04-06T03:53:33;5.97;;;3.58;;
42192;SDS011;52467;40.114;18.306;2023-04-06T03:56:03;4.38;;;3.30;;
42192;SDS011;52467;40.114;18.306;2023-04-06T03:58:34;8.25;;;3.63;;
42192;SDS011;52467;40.114;18.306;2023-04-06T04:01:02;5.18;;;3.45;;
42192;SDS011;52467;40.114;18.306;2023-04-06T04:03:30;7.73;;;3.90;;
42192;SDS011;52467;40.114;18.306;2023-04-06T04:05:58;6.20;;;3.97;;
42192;SDS011;52467;40.114;18.306;2023-04-06T04:08:25;6.32;;;3.70;;
42192;SDS011;52467;40.114;18.306;2023-04-06T04:10:54;7.03;;;4.15;;
42192;SDS011;52467;40.114;18.306;2023-04-06T04:13:21;8.43;;;3.92;;
42192;SDS011;52467;40.114;18.306;2023-04-06T04:15:50;5.95;;;3.90;;
42192;SDS011;52467;40.114;18.306;2023-04-06T04:18:19;7.20;;;4.05;;
42192;SDS011;52467;40.114;18.306;2023-04-06T04:20:47;8.02;;;4.25;;
42192;SDS011;52467;40.114;18.306;2023-04-06T04:23:22;7.37;;;4.13;;
42192;SDS011;52467;40.114;18.306;2023-04-06T04:25:50;7.15;;;4.65;;
42192;SDS011;52467;40.114;18.306;2023-04-06T04:28:18;10.35;;;5.10;;
42192;SDS011;52467;40.114;18.306;2023-04-06T04:30:46;8.90;;;4.50;;
42192;SDS011;52467;40.114;18.306;2023-04-06T04:33:14;6.70;;;4.28;;
42192;SDS011;52467;40.114;18.306;2023-04-06T04:35:42;8.05;;;4.40;;
42192;SDS011;52467;40.114;18.306;2023-04-06T04:38:14;7.57;;;4.32;;
42192;SDS011;52467;40.114;18.306;2023-04-06T04:40:45;11.70;;;4.90;;
42192;SDS011;52467;40.114;18.306;2023-04-06T04:43:13;10.45;;;4.80;;
42192;SDS011;52467;40.114;18.306;2023-04-06T04:45:41;8.63;;;4.60;;
42192;SDS011;52467;40.114;18.306;2023-04-06T04:48:29;7.55;;;4.78;;
42192;SDS011;52467;40.114;18.306;2023-04-06T04:51:00;8.88;;;5.05;;
42192;SDS011;52467;40.114;18.306;2023-04-06T04:53:39;9.90;;;5.28;;
42192;SDS011;52467;40.114;18.306;2023-04-06T04:56:16;7.90;;;4.75;;
42192;SDS011;52467;40.114;18.306;2023-04-06T04:58:47;6.47;;;4.50;;
42192;SDS011;52467;40.114;18.306;2023-04-06T05:01:15;8.13;;;4.88;;
42192;SDS011;52467;40.114;18.306;2023-04-06T05:03:44;11.07;;;5.23;;
42192;SDS011;52467;40.114;18.306;2023-04-06T05:06:14;8.93;;;5.50;;
42192;SDS011;52467;40.114;18.306;2023-04-06T05:08:43;9.38;;;5.45;;
42192;SDS011;52467;40.114;18.306;2023-04-06T05:11:11;10.57;;;5.70;;
42192;SDS011;52467;40.114;18.306;2023-04-06T05:13:44;9.10;;;5.13;;
42192;SDS011;52467;40.114;18.306;2023-04-06T05:16:16;7.73;;;4.67;;
42192;SDS011;52467;40.114;18.306;2023-04-06T05:18:44;6.97;;;4.88;;
42192;SDS011;52467;40.114;18.306;2023-04-06T05:21:12;8.10;;;5.03;;
42192;SDS011;52467;40.114;18.306;2023-04-06T05:23:54;8.73;;;5.18;;
42192;SDS011;52467;40.114;18.306;2023-04-06T05:26:23;8.60;;;4.72;;
42192;SDS011;52467;40.114;18.306;2023-04-06T05:28:55;6.65;;;4.72;;
42192;SDS011;52467;40.114;18.306;2023-04-06T05:31:24;10.13;;;4.63;;
42192;SDS011;52467;40.114;18.306;2023-04-06T05:33:52;7.15;;;4.63;;
42192;SDS011;52467;40.114;18.306;2023-04-06T05:36:32;8.77;;;5.15;;
42192;SDS011;52467;40.114;18.306;2023-04-06T05:39:05;7.47;;;5.20;;
42192;SDS011;52467;40.114;18.306;2023-04-06T05:41:39;9.38;;;5.50;;
42192;SDS011;52467;40.114;18.306;2023-04-06T05:44:09;8.65;;;5.00;;
42192;SDS011;52467;40.114;18.306;2023-04-06T05:46:38;8.85;;;5.40;;
42192;SDS011;52467;40.114;18.306;2023-04-06T05:49:10;8.25;;;5.53;;
42192;SDS011;52467;40.114;18.306;2023-04-06T05:51:38;9.18;;;5.95;;
42192;SDS011;52467;40.114;18.306;2023-04-06T05:54:06;11.02;;;6.47;;
42192;SDS011;52467;40.114;18.306;2023-04-06T05:56:34;11.20;;;6.00;;
42192;SDS011;52467;40.114;18.306;2023-04-06T05:59:02;10.30;;;6.00;;
42192;SDS011;52467;40.114;18.306;2023-04-06T06:01:30;11.00;;;5.90;;
42192;SDS011;52467;40.114;18.306;2023-04-06T06:03:59;10.57;;;6.20;;
42192;SDS011;52467;40.114;18.306;2023-04-06T06:06:30;8.90;;;5.47;;
42192;SDS011;52467;40.114;18.306;2023-04-06T06:09:17;10.85;;;6.15;;
42192;SDS011;52467;40.114;18.306;2023-04-06T06:11:55;9.15;;;5.63;;
42192;SDS011;52467;40.114;18.306;2023-04-06T06:14:25;9.57;;;5.40;;
42192;SDS011;52467;40.114;18.306;2023-04-06T06:16:55;10.27;;;5.30;;
42192;SDS011;52467;40.114;18.306;2023-04-06T06:19:22;8.65;;;5.78;;
42192;SDS011;52467;40.114;18.306;2023-04-06T06:21:53;11.73;;;6.17;;
42192;SDS011;52467;40.114;18.306;2023-04-06T06:24:21;13.93;;;6.35;;
42192;SDS011;52467;40.114;18.306;2023-04-06T06:26:48;9.50;;;5.47;;
42192;SDS011;52467;40.114;18.306;2023-04-06T06:29:18;12.63;;;5.53;;
42192;SDS011;52467;40.114;18.306;2023-04-06T06:31:45;9.40;;;5.55;;
42192;SDS011;52467;40.114;18.306;2023-04-06T06:34:13;10.52;;;5.53;;
42192;SDS011;52467;40.114;18.306;2023-04-06T06:36:41;8.63;;;5.50;;
42192;SDS011;52467;40.114;18.306;2023-04-06T06:39:11;10.20;;;4.90;;
42192;SDS011;52467;40.114;18.306;2023-04-06T06:41:39;8.93;;;5.28;;
42192;SDS011;52467;40.114;18.306;2023-04-06T06:44:07;8.90;;;5.07;;
42192;SDS011;52467;40.114;18.306;2023-04-06T06:46:35;8.55;;;4.88;;
42192;SDS011;52467;40.114;18.306;2023-04-06T06:49:02;8.23;;;4.57;;
42192;SDS011;52467;40.114;18.306;2023-04-06T06:51:30;7.38;;;4.95;;
42192;SDS011;52467;40.114;18.306;2023-04-06T06:53:57;8.48;;;4.95;;
42192;SDS011;52467;40.114;18.306;2023-04-06T06:56:24;7.75;;;4.60;;
42192;SDS011;52467;40.114;18.306;2023-04-06T06:58:55;5.88;;;3.72;;
42192;SDS011;52467;40.114;18.306;2023-04-06T07:01:22;7.32;;;4.25;;
42192;SDS011;52467;40.114;18.306;2023-04-06T07:03:54;5.07;;;3.60;;
42192;SDS011;52467;40.114;18.306;2023-04-06T07:06:21;7.13;;;3.47;;
42192;SDS011;52467;40.114;18.306;2023-04-06T07:08:49;8.65;;;3.90;;
42192;SDS011;52467;40.114;18.306;2023-04-06T07:11:16;7.28;;;4.00;;
42192;SDS011;52467;40.114;18.306;2023-04-06T07:13:44;5.85;;;3.50;;
42192;SDS011;52467;40.114;18.306;2023-04-06T07:16:11;6.60;;;4.20;;
42192;SDS011;52467;40.114;18.306;2023-04-06T07:18:39;5.30;;;3.80;;
42192;SDS011;52467;40.114;18.306;2023-04-06T07:21:07;6.60;;;4.03;;
42192;SDS011;52467;40.114;18.306;2023-04-06T07:23:34;4.78;;;3.50;;
42192;SDS011;52467;40.114;18.306;2023-04-06T07:26:02;9.85;;;3.92;;
42192;SDS011;52467;40.114;18.306;2023-04-06T07:28:29;7.90;;;3.80;;
42192;SDS011;52467;40.114;18.306;2023-04-06T07:30:56;6.63;;;3.70;;
42192;SDS011;52467;40.114;18.306;2023-04-06T07:33:25;6.15;;;3.92;;
42192;SDS011;52467;40.114;18.306;2023-04-06T07:35:57;7.50;;;4.20;;
42192;SDS011;52467;40.114;18.306;2023-04-06T07:38:25;6.00;;;3.92;;
42192;SDS011;52467;40.114;18.306;2023-04-06T07:40:52;7.05;;;3.65;;
42192;SDS011;52467;40.114;18.306;2023-04-06T07:43:20;6.65;;;4.03;;
42192;SDS011;52467;40.114;18.306;2023-04-06T07:45:48;6.90;;;3.50;;
42192;SDS011;52467;40.114;18.306;2023-04-06T07:48:16;11.10;;;3.97;;
42192;SDS011;52467;40.114;18.306;2023-04-06T07:50:44;5.35;;;3.22;;
42192;SDS011;52467;40.114;18.306;2023-04-06T07:53:11;7.32;;;3.80;;
42192;SDS011;52467;40.114;18.306;2023-04-06T07:55:39;5.70;;;3.30;;
42192;SDS011;52467;40.114;18.306;2023-04-06T07:58:06;5.70;;;3.13;;
42192;SDS011;52467;40.114;18.306;2023-04-06T08:00:34;4.60;;;2.90;;
42192;SDS011;52467;40.114;18.306;2023-04-06T08:03:02;5.03;;;2.97;;
42192;SDS011;52467;40.114;18.306;2023-04-06T08:05:30;5.70;;;3.30;;
42192;SDS011;52467;40.114;18.306;2023-04-06T08:07:57;7.05;;;3.13;;
42192;SDS011;52467;40.114;18.306;2023-04-06T08:10:25;7.17;;;3.80;;
42192;SDS011;52467;40.114;18.306;2023-04-06T08:12:52;5.68;;;3.33;;
42192;SDS011;52467;40.114;18.306;2023-04-06T08:15:19;5.82;;;3.70;;
42192;SDS011;52467;40.114;18.306;2023-04-06T08:17:47;4.97;;;3.40;;
42192;SDS011;52467;40.114;18.306;2023-04-06T08:20:14;6.85;;;4.30;;
42192;SDS011;52467;40.114;18.306;2023-04-06T08:22:42;6.90;;;4.38;;
42192;SDS011;52467;40.114;18.306;2023-04-06T08:25:09;6.72;;;4.43;;
42192;SDS011;52467;40.114;18.306;2023-04-06T08:27:36;8.95;;;4.40;;
42192;SDS011;52467;40.114;18.306;2023-04-06T08:30:04;10.93;;;4.35;;
42192;SDS011;52467;40.114;18.306;2023-04-06T08:32:31;6.68;;;4.45;;
42192;SDS011;52467;40.114;18.306;2023-04-06T08:34:59;6.57;;;4.28;;
42192;SDS011;52467;40.114;18.306;2023-04-06T08:37:26;7.32;;;4.80;;
42192;SDS011;52467;40.114;18.306;2023-04-06T08:39:54;8.35;;;4.10;;
42192;SDS011;52467;40.114;18.306;2023-04-06T08:42:22;7.57;;;4.10;;
42192;SDS011;52467;40.114;18.306;2023-04-06T08:44:51;8.35;;;4.45;;
42192;SDS011;52467;40.114;18.306;2023-04-06T08:47:19;8.23;;;4.18;;
42192;SDS011;52467;40.114;18.306;2023-04-06T08:49:48;6.17;;;4.47;;
42192;SDS011;52467;40.114;18.306;2023-04-06T08:52:17;4.13;;;3.50;;
42192;SDS011;52467;40.114;18.306;2023-04-06T08:54:45;7.07;;;4.20;;
42192;SDS011;52467;40.114;18.306;2023-04-06T08:57:13;8.38;;;4.38;;
42192;SDS011;52467;40.114;18.306;2023-04-06T08:59:40;8.02;;;3.78;;
42192;SDS011;52467;40.114;18.306;2023-04-06T09:02:08;7.30;;;3.80;;
42192;SDS011;52467;40.114;18.306;2023-04-06T09:04:39;6.55;;;4.03;;
42192;SDS011;52467;40.114;18.306;2023-04-06T09:07:06;5.95;;;3.70;;
42192;SDS011;52467;40.114;18.306;2023-04-06T09:09:34;6.32;;;3.92;;
42192;SDS011;52467;40.114;18.306;2023-04-06T09:12:01;6.80;;;3.90;;
42192;SDS011;52467;40.114;18.306;2023-04-06T09:14:33;6.63;;;3.83;;
42192;SDS011;52467;40.114;18.306;2023-04-06T09:17:02;6.97;;;4.18;;
42192;SDS011;52467;40.114;18.306;2023-04-06T09:19:29;9.30;;;4.38;;
42192;SDS011;52467;40.114;18.306;2023-04-06T09:22:03;10.20;;;4.67;;
42192;SDS011;52467;40.114;18.306;2023-04-06T09:24:53;9.25;;;4.07;;
42192;SDS011;52467;40.114;18.306;2023-04-06T09:27:30;8.05;;;4.00;;
42192;SDS011;52467;40.114;18.306;2023-04-06T09:30:09;7.40;;;4.70;;
42192;SDS011;52467;40.114;18.306;2023-04-06T09:32:49;6.83;;;4.57;;
42192;SDS011;52467;40.114;18.306;2023-04-06T09:35:18;6.05;;;4.40;;
42192;SDS011;52467;40.114;18.306;2023-04-06T09:37:50;6.95;;;4.47;;
42192;SDS011;52467;40.114;18.306;2023-04-06T09:40:18;7.95;;;4.65;;
42192;SDS011;52467;40.114;18.306;2023-04-06T09:42:46;8.75;;;4.20;;
42192;SDS011;52467;40.114;18.306;2023-04-06T09:45:14;5.95;;;4.53;;
42192;SDS011;52467;40.114;18.306;2023-04-06T09:47:45;5.38;;;4.50;;
42192;SDS011;52467;40.114;18.306;2023-04-06T09:50:13;7.10;;;4.30;;
42192;SDS011;52467;40.114;18.306;2023-04-06T09:52:46;8.63;;;4.70;;
42192;SDS011;52467;40.114;18.306;2023-04-06T09:55:20;5.15;;;3.95;;
42192;SDS011;52467;40.114;18.306;2023-04-06T09:58:05;9.00;;;4.47;;
42192;SDS011;52467;40.114;18.306;2023-04-06T10:00:44;8.60;;;4.70;;
42192;SDS011;52467;40.114;18.306;2023-04-06T10:06:03;6.18;;;4.75;;
42192;SDS011;52467;40.114;18.306;2023-04-06T10:08:33;6.60;;;4.93;;
42192;SDS011;52467;40.114;18.306;2023-04-06T10:11:00;8.45;;;5.05;;
42192;SDS011;52467;40.114;18.306;2023-04-06T10:13:28;5.85;;;4.25;;
42192;SDS011;52467;40.114;18.306;2023-04-06T10:15:55;6.88;;;4.75;;
42192;SDS011;52467;40.114;18.306;2023-04-06T10:18:24;8.75;;;5.10;;
42192;SDS011;52467;40.114;18.306;2023-04-06T10:20:55;6.93;;;5.03;;
42192;SDS011;52467;40.114;18.306;2023-04-06T10:25:55;7.53;;;5.30;;
42192;SDS011;52467;40.114;18.306;2023-04-06T10:28:24;9.40;;;5.78;;
42192;SDS011;52467;40.114;18.306;2023-04-06T10:30:58;8.07;;;5.15;;
42192;SDS011;52467;40.114;18.306;2023-04-06T10:33:27;7.83;;;5.33;;
42192;SDS011;52467;40.114;18.306;2023-04-06T10:35:55;8.40;;;5.82;;
42192;SDS011;52467;40.114;18.306;2023-04-06T10:38:36;7.30;;;5.13;;
42192;SDS011;52467;40.114;18.306;2023-04-06T10:41:10;8.13;;;5.22;;
42192;SDS011;52467;40.114;18.306;2023-04-06T10:43:38;9.07;;;5.70;;
42192;SDS011;52467;40.114;18.306;2023-04-06T10:46:08;8.43;;;5.55;;
42192;SDS011;52467;40.114;18.306;2023-04-06T10:48:42;7.80;;;5.13;;
42192;SDS011;52467;40.114;18.306;2023-04-06T10:51:12;7.57;;;5.60;;
42192;SDS011;52467;40.114;18.306;2023-04-06T10:53:47;7.15;;;4.82;;
42192;SDS011;52467;40.114;18.306;2023-04-06T10:56:16;7.83;;;5.37;;
42192;SDS011;52467;40.114;18.306;2023-04-06T10:58:48;6.70;;;5.00;;
42192;SDS011;52467;40.114;18.306;2023-04-06T11:01:20;10.48;;;6.47;;
42192;SDS011;52467;40.114;18.306;2023-04-06T11:03:49;8.27;;;5.60;;
42192;SDS011;52467;40.114;18.306;2023-04-06T11:06:25;9.88;;;6.40;;
42192;SDS011;52467;40.114;18.306;2023-04-06T11:08:53;10.55;;;6.57;;
42192;SDS011;52467;40.114;18.306;2023-04-06T11:11:22;13.00;;;6.57;;
42192;SDS011;52467;40.114;18.306;2023-04-06T11:21:41;10.10;;;6.20;;
42192;SDS011;52467;40.114;18.306;2023-04-06T11:26:56;10.15;;;5.97;;
42192;SDS011;52467;40.114;18.306;2023-04-06T11:29:25;9.25;;;6.18;;
42192;SDS011;52467;40.114;18.306;2023-04-06T11:31:57;10.73;;;6.57;;
42192;SDS011;52467;40.114;18.306;2023-04-06T11:34:27;10.57;;;6.40;;
42192;SDS011;52467;40.114;18.306;2023-04-06T11:36:57;11.77;;;6.65;;
42192;SDS011;52467;40.114;18.306;2023-04-06T11:39:26;8.73;;;6.28;;
42192;SDS011;52467;40.114;18.306;2023-04-06T11:41:58;10.88;;;6.20;;
42192;SDS011;52467;40.114;18.306;2023-04-06T11:44:44;10.47;;;6.47;;
42192;SDS011;52467;40.114;18.306;2023-04-06T11:47:16;10.70;;;6.25;;
42192;SDS011;52467;40.114;18.306;2023-04-06T11:49:43;8.23;;;5.60;;
42192;SDS011;52467;40.114;18.306;2023-04-06T11:52:22;8.13;;;5.63;;
42192;SDS011;52467;40.114;18.306;2023-04-06T11:54:54;10.93;;;5.65;;
42192;SDS011;52467;40.114;18.306;2023-04-06T11:57:23;7.85;;;5.03;;
42192;SDS011;52467;40.114;18.306;2023-04-06T11:59:52;6.72;;;5.30;;
42192;SDS011;52467;40.114;18.306;2023-04-06T12:02:19;7.83;;;5.73;;
42192;SDS011;52467;40.114;18.306;2023-04-06T12:04:47;9.23;;;6.07;;
42192;SDS011;52467;40.114;18.306;2023-04-06T12:07:15;12.95;;;6.40;;
42192;SDS011;52467;40.114;18.306;2023-04-06T12:09:43;8.15;;;5.70;;
42192;SDS011;52467;40.114;18.306;2023-04-06T12:12:10;9.35;;;5.32;;
42192;SDS011;52467;40.114;18.306;2023-04-06T12:14:37;10.05;;;5.47;;
42192;SDS011;52467;40.114;18.306;2023-04-06T12:17:05;8.33;;;5.37;;
42192;SDS011;52467;40.114;18.306;2023-04-06T12:19:32;8.95;;;5.93;;
42192;SDS011;52467;40.114;18.306;2023-04-06T12:22:00;9.82;;;5.65;;
42192;SDS011;52467;40.114;18.306;2023-04-06T12:24:27;8.37;;;5.57;;
42192;SDS011;52467;40.114;18.306;2023-04-06T12:26:55;9.30;;;5.60;;
42192;SDS011;52467;40.114;18.306;2023-04-06T12:29:28;7.87;;;4.73;;
42192;SDS011;52467;40.114;18.306;2023-04-06T12:31:55;5.53;;;4.65;;
42192;SDS011;52467;40.114;18.306;2023-04-06T12:34:23;6.60;;;4.40;;
42192;SDS011;52467;40.114;18.306;2023-04-06T12:36:50;7.25;;;4.03;;
42192;SDS011;52467;40.114;18.306;2023-04-06T12:39:18;7.47;;;4.13;;
42192;SDS011;52467;40.114;18.306;2023-04-06T12:41:47;7.00;;;4.10;;
42192;SDS011;52467;40.114;18.306;2023-04-06T12:44:14;5.97;;;3.70;;
42192;SDS011;52467;40.114;18.306;2023-04-06T12:46:42;5.68;;;3.78;;
42192;SDS011;52467;40.114;18.306;2023-04-06T12:49:09;7.13;;;4.28;;
42192;SDS011;52467;40.114;18.306;2023-04-06T12:51:37;4.53;;;4.07;;
42192;SDS011;52467;40.114;18.306;2023-04-06T12:54:05;5.20;;;4.00;;
42192;SDS011;52467;40.114;18.306;2023-04-06T12:56:33;6.90;;;4.43;;
42192;SDS011;52467;40.114;18.306;2023-04-06T12:59:00;7.97;;;4.13;;
42192;SDS011;52467;40.114;18.306;2023-04-06T13:01:27;8.30;;;3.72;;
42192;SDS011;52467;40.114;18.306;2023-04-06T13:03:56;5.40;;;3.90;;
42192;SDS011;52467;40.114;18.306;2023-04-06T13:06:24;6.10;;;4.07;;
42192;SDS011;52467;40.114;18.306;2023-04-06T13:08:55;7.03;;;3.75;;
42192;SDS011;52467;40.114;18.306;2023-04-06T13:11:22;6.85;;;4.25;;
42192;SDS011;52467;40.114;18.306;2023-04-06T13:13:52;5.60;;;3.55;;
42192;SDS011;52467;40.114;18.306;2023-04-06T13:16:20;6.78;;;3.47;;
42192;SDS011;52467;40.114;18.306;2023-04-06T13:18:47;5.78;;;3.17;;
42192;SDS011;52467;40.114;18.306;2023-04-06T13:21:15;5.30;;;2.88;;
42192;SDS011;52467;40.114;18.306;2023-04-06T13:23:43;5.00;;;2.83;;
42192;SDS011;52467;40.114;18.306;2023-04-06T13:26:11;7.43;;;2.65;;
42192;SDS011;52467;40.114;18.306;2023-04-06T13:28:40;4.97;;;2.40;;
42192;SDS011;52467;40.114;18.306;2023-04-06T13:31:07;3.15;;;2.03;;
42192;SDS011;52467;40.114;18.306;2023-04-06T13:33:36;4.18;;;2.13;;
42192;SDS011;52467;40.114;18.306;2023-04-06T13:36:03;6.15;;;2.30;;
42192;SDS011;52467;40.114;18.306;2023-04-06T13:38:33;6.43;;;2.13;;
42192;SDS011;52467;40.114;18.306;2023-04-06T13:41:01;4.32;;;2.08;;
42192;SDS011;52467;40.114;18.306;2023-04-06T13:43:29;5.20;;;2.08;;
42192;SDS011;52467;40.114;18.306;2023-04-06T13:45:57;2.80;;;2.10;;
42192;SDS011;52467;40.114;18.306;2023-04-06T13:48:26;4.00;;;2.50;;
42192;SDS011;52467;40.114;18.306;2023-04-06T13:50:53;4.70;;;2.63;;
42192;SDS011;52467;40.114;18.306;2023-04-06T13:53:21;4.72;;;2.80;;
42192;SDS011;52467;40.114;18.306;2023-04-06T13:55:52;6.85;;;3.10;;
42192;SDS011;52467;40.114;18.306;2023-04-06T13:58:22;6.45;;;3.15;;
42192;SDS011;52467;40.114;18.306;2023-04-06T14:00:50;5.53;;;2.97;;
42192;SDS011;52467;40.114;18.306;2023-04-06T14:03:17;5.20;;;2.80;;
42192;SDS011;52467;40.114;18.306;2023-04-06T14:05:45;6.88;;;3.40;;
42192;SDS011;52467;40.114;18.306;2023-04-06T14:08:13;5.65;;;3.15;;
42192;SDS011;52467;40.114;18.306;2023-04-06T14:10:40;7.07;;;2.97;;
42192;SDS011;52467;40.114;18.306;2023-04-06T14:13:08;6.03;;;3.47;;
42192;SDS011;52467;40.114;18.306;2023-04-06T14:15:37;7.38;;;3.80;;
42192;SDS011;52467;40.114;18.306;2023-04-06T14:18:05;9.47;;;4.50;;
42192;SDS011;52467;40.114;18.306;2023-04-06T14:20:32;7.28;;;4.05;;
42192;SDS011;52467;40.114;18.306;2023-04-06T14:23:00;9.60;;;4.35;;
42192;SDS011;52467;40.114;18.306;2023-04-06T14:25:28;9.43;;;4.00;;
42192;SDS011;52467;40.114;18.306;2023-04-06T14:27:58;8.52;;;3.75;;
42192;SDS011;52467;40.114;18.306;2023-04-06T14:30:25;5.47;;;3.53;;
42192;SDS011;52467;40.114;18.306;2023-04-06T14:32:56;7.60;;;3.53;;
42192;SDS011;52467;40.114;18.306;2023-04-06T14:35:24;5.40;;;3.10;;
42192;SDS011;52467;40.114;18.306;2023-04-06T14:37:54;7.43;;;3.03;;
42192;SDS011;52467;40.114;18.306;2023-04-06T14:40:26;7.57;;;3.58;;
42192;SDS011;52467;40.114;18.306;2023-04-06T14:42:54;7.15;;;3.13;;
42192;SDS011;52467;40.114;18.306;2023-04-06T14:45:23;5.35;;;3.17;;
42192;SDS011;52467;40.114;18.306;2023-04-06T14:47:50;7.20;;;4.00;;
42192;SDS011;52467;40.114;18.306;2023-04-06T14:50:17;6.53;;;3.85;;
42192;SDS011;52467;40.114;18.306;2023-04-06T14:52:45;6.00;;;3.87;;
42192;SDS011;52467;40.114;18.306;2023-04-06T14:55:13;7.50;;;4.28;;
42192;SDS011;52467;40.114;18.306;2023-04-06T14:57:41;6.32;;;4.55;;
42192;SDS011;52467;40.114;18.306;2023-04-06T15:00:08;8.90;;;5.20;;
42192;SDS011;52467;40.114;18.306;2023-04-06T15:02:36;9.57;;;5.53;;
42192;SDS011;52467;40.114;18.306;2023-04-06T15:05:04;7.50;;;4.90;;